Mystic, Georgia
Current Conditions -  °F | °C
As of 2:15 PM on Monday 20 Oct 2014 (Local Time) from KFZG Reporting Station
Scattered Clouds Scattered Clouds  
Wind Chill: 79°   Ceiling: Unl
Heat Index: 80°   Visibility: 10mi
Dew Point: 56°   Wind: 7mph
Humidity: 46%   Direction: 180°S
Pressure: 30.05"   Gusts: NA
Location:  31.62°N, 83.34°W
Report Text: KFZG 201815Z AUTO 18006KT 10SM SCT040 SCT048 26/14 A3005 RMK AO2 T02610135
Loading
Personal Weather Stations






























Interactive Weather Map
Tropical Storm Tracking
New forecast layout! Learn more

10-Day Weather Forecast

Advertisements
Track Severe Weather on mobile